createdAt,value
2018-02-22T21:44:16.508Z,65.80
2018-02-22T21:46:48.239Z,66.00
2018-02-22T21:49:15.937Z,66.80
2018-02-22T21:52:02.193Z,66.60
2018-02-22T21:54:29.840Z,66.80
2018-02-22T21:56:57.472Z,66.50
2018-02-22T21:59:25.122Z,66.70
2018-02-22T22:01:53.660Z,67.00
2018-02-22T22:04:21.321Z,67.30
2018-02-22T22:06:48.958Z,67.70
2018-02-22T22:09:16.600Z,67.60
2018-02-22T22:11:44.264Z,67.70
2018-02-22T22:14:11.900Z,67.90
2018-02-22T22:16:39.566Z,68.40
2018-02-22T22:19:07.204Z,68.30
2018-02-22T22:21:35.606Z,68.80
2018-02-22T22:24:03.573Z,68.70
2018-02-22T22:26:31.964Z,69.50
2018-02-22T22:29:09.831Z,69.50
2018-02-22T22:31:38.252Z,69.50
2018-02-22T22:34:05.909Z,69.50
2018-02-22T22:36:34.300Z,69.70
2018-02-22T22:39:01.932Z,69.70
2018-02-22T22:41:29.586Z,69.80
2018-02-22T22:43:57.227Z,69.10
2018-02-22T22:46:24.865Z,69.60
2018-02-22T22:48:52.496Z,69.90
2018-02-22T22:51:20.836Z,69.90
2018-02-22T22:53:48.486Z,70.00
2018-02-22T22:56:16.109Z,70.30
2018-02-22T22:58:43.740Z,69.60
2018-02-22T23:01:11.374Z,69.80
2018-02-22T23:03:39.844Z,70.30
2018-02-22T23:06:07.886Z,70.30
2018-02-22T23:08:35.521Z,70.60
2018-02-22T23:11:03.152Z,70.20
2018-02-22T23:13:31.956Z,71.10
2018-02-22T23:16:00.352Z,70.70
2018-02-22T23:18:27.990Z,70.70
2018-02-22T23:21:11.226Z,70.90
2018-02-22T23:23:39.624Z,71.20
2018-02-22T23:26:07.364Z,71.20
2018-02-22T23:28:35.769Z,71.40
2018-02-22T23:31:03.406Z,71.30
2018-02-22T23:33:31.038Z,71.50
2018-02-22T23:35:58.735Z,71.40
2018-02-22T23:38:26.310Z,72.10
2018-02-22T23:40:54.714Z,71.50
2018-02-22T23:43:22.348Z,70.70
2018-02-22T23:45:49.987Z,71.40
2018-02-22T23:48:17.616Z,71.80
2018-02-22T23:50:45.568Z,72.30
2018-02-22T23:53:13.974Z,72.10
2018-02-22T23:55:41.605Z,72.00
2018-02-22T23:58:09.264Z,73.00
